sensor_id;sensor_type;location;lat;lon;timestamp;pressure;altitude;pressure_sealevel;temperature;humidity
929;BME280;451;47.988;7.842;2022-09-09T00:01:46;98178.25;;;16.11;100.00
929;BME280;451;47.988;7.842;2022-09-09T00:10:58;98150.50;;;16.07;100.00
929;BME280;451;47.988;7.842;2022-09-09T00:20:12;98185.47;;;15.91;100.00
929;BME280;451;47.988;7.842;2022-09-09T00:29:35;98191.00;;;15.90;100.00
929;BME280;451;47.988;7.842;2022-09-09T00:38:50;98191.34;;;16.00;100.00
929;BME280;451;47.988;7.842;2022-09-09T00:47:53;98166.28;;;15.96;100.00
929;BME280;451;47.988;7.842;2022-09-09T01:06:24;98181.97;;;16.35;100.00
929;BME280;451;47.988;7.842;2022-09-09T01:15:29;98155.44;;;16.35;100.00
929;BME280;451;47.988;7.842;2022-09-09T01:24:48;98166.78;;;16.49;100.00
929;BME280;451;47.988;7.842;2022-09-09T01:34:15;98164.75;;;16.44;100.00
929;BME280;451;47.988;7.842;2022-09-09T01:43:22;98220.19;;;16.59;100.00
929;BME280;451;47.988;7.842;2022-09-09T01:52:25;98203.84;;;15.93;100.00
929;BME280;451;47.988;7.842;2022-09-09T02:11:03;98206.72;;;15.85;100.00
929;BME280;451;47.988;7.842;2022-09-09T02:20:14;98205.09;;;15.77;100.00
929;BME280;451;47.988;7.842;2022-09-09T02:29:27;98208.00;;;15.62;100.00
929;BME280;451;47.988;7.842;2022-09-09T02:38:37;98199.47;;;15.60;100.00
929;BME280;451;47.988;7.842;2022-09-09T02:47:55;98202.69;;;15.69;100.00
929;BME280;451;47.988;7.842;2022-09-09T03:06:15;98172.97;;;15.60;100.00
929;BME280;451;47.988;7.842;2022-09-09T03:15:21;98180.63;;;15.82;100.00
929;BME280;451;47.988;7.842;2022-09-09T03:24:24;98179.31;;;16.04;100.00
929;BME280;451;47.988;7.842;2022-09-09T03:33:26;98180.41;;;15.83;100.00
929;BME280;451;47.988;7.842;2022-09-09T03:42:28;98133.28;;;15.92;100.00
929;BME280;451;47.988;7.842;2022-09-09T03:51:32;98157.25;;;16.10;100.00
929;BME280;451;47.988;7.842;2022-09-09T04:00:39;98168.00;;;17.03;100.00
929;BME280;451;47.988;7.842;2022-09-09T04:09:44;98169.56;;;17.10;100.00
929;BME280;451;47.988;7.842;2022-09-09T04:18:46;98166.31;;;17.08;100.00
929;BME280;451;47.988;7.842;2022-09-09T04:27:55;98161.38;;;16.87;100.00
929;BME280;451;47.988;7.842;2022-09-09T04:36:57;98188.19;;;16.85;100.00
929;BME280;451;47.988;7.842;2022-09-09T04:46:00;98172.19;;;16.92;100.00
929;BME280;451;47.988;7.842;2022-09-09T04:55:02;98182.25;;;17.08;100.00
929;BME280;451;47.988;7.842;2022-09-09T05:04:03;98184.31;;;17.06;100.00
929;BME280;451;47.988;7.842;2022-09-09T05:13:07;98159.44;;;17.01;100.00
929;BME280;451;47.988;7.842;2022-09-09T05:22:10;98162.56;;;17.16;100.00
929;BME280;451;47.988;7.842;2022-09-09T05:31:19;98182.88;;;17.28;100.00
929;BME280;451;47.988;7.842;2022-09-09T05:40:24;98197.22;;;17.46;100.00
929;BME280;451;47.988;7.842;2022-09-09T05:49:26;98191.59;;;17.54;100.00
929;BME280;451;47.988;7.842;2022-09-09T05:58:32;98207.66;;;17.84;100.00
929;BME280;451;47.988;7.842;2022-09-09T06:07:34;98189.72;;;17.79;100.00
929;BME280;451;47.988;7.842;2022-09-09T06:16:37;98208.16;;;18.10;100.00
929;BME280;451;47.988;7.842;2022-09-09T06:25:42;98192.44;;;18.21;100.00
929;BME280;451;47.988;7.842;2022-09-09T06:34:44;98190.81;;;18.20;100.00
929;BME280;451;47.988;7.842;2022-09-09T06:43:47;98224.47;;;18.44;100.00
929;BME280;451;47.988;7.842;2022-09-09T06:52:49;98191.47;;;17.85;100.00
929;BME280;451;47.988;7.842;2022-09-09T07:01:51;98240.63;;;18.90;100.00
929;BME280;451;47.988;7.842;2022-09-09T07:10:54;98233.69;;;19.13;100.00
929;BME280;451;47.988;7.842;2022-09-09T07:19:56;98222.19;;;19.12;100.00
929;BME280;451;47.988;7.842;2022-09-09T07:28:58;98242.84;;;19.28;100.00
929;BME280;451;47.988;7.842;2022-09-09T07:38:01;98252.63;;;19.58;100.00
929;BME280;451;47.988;7.842;2022-09-09T07:47:03;98270.38;;;19.52;100.00
929;BME280;451;47.988;7.842;2022-09-09T07:56:12;98272.06;;;19.35;100.00
929;BME280;451;47.988;7.842;2022-09-09T08:05:16;98250.34;;;18.97;100.00
929;BME280;451;47.988;7.842;2022-09-09T08:14:20;98281.44;;;19.26;100.00
929;BME280;451;47.988;7.842;2022-09-09T08:23:22;98285.31;;;19.65;100.00
929;BME280;451;47.988;7.842;2022-09-09T08:32:23;98271.25;;;20.04;100.00
929;BME280;451;47.988;7.842;2022-09-09T08:50:40;98271.63;;;20.65;100.00
929;BME280;451;47.988;7.842;2022-09-09T08:59:50;98196.66;;;19.98;100.00
929;BME280;451;47.988;7.842;2022-09-09T09:09:03;98278.00;;;20.92;100.00
929;BME280;451;47.988;7.842;2022-09-09T09:18:08;98262.19;;;21.36;100.00
929;BME280;451;47.988;7.842;2022-09-09T09:27:25;98255.34;;;21.45;100.00
929;BME280;451;47.988;7.842;2022-09-09T09:36:38;98241.94;;;20.78;92.55
929;BME280;451;47.988;7.842;2022-09-09T09:45:43;98258.97;;;21.72;89.55
929;BME280;451;47.988;7.842;2022-09-09T09:54:50;98228.84;;;21.26;87.96
929;BME280;451;47.988;7.842;2022-09-09T10:04:12;98242.28;;;22.52;82.00
929;BME280;451;47.988;7.842;2022-09-09T10:23:15;98229.66;;;23.06;74.13
929;BME280;451;47.988;7.842;2022-09-09T10:51:19;98252.56;;;20.73;100.00
929;BME280;451;47.988;7.842;2022-09-09T11:00:31;98243.63;;;22.06;81.50
929;BME280;451;47.988;7.842;2022-09-09T11:09:45;98269.78;;;22.69;77.09
929;BME280;451;47.988;7.842;2022-09-09T11:18:50;98266.00;;;21.78;94.18
929;BME280;451;47.988;7.842;2022-09-09T11:37:53;98265.81;;;22.23;82.56
929;BME280;451;47.988;7.842;2022-09-09T11:46:59;98266.00;;;22.65;81.24
929;BME280;451;47.988;7.842;2022-09-09T11:56:05;98263.63;;;22.96;77.79
929;BME280;451;47.988;7.842;2022-09-09T12:05:10;98238.00;;;23.10;69.71
929;BME280;451;47.988;7.842;2022-09-09T12:24:11;98269.13;;;22.79;67.68
929;BME280;451;47.988;7.842;2022-09-09T12:33:17;98243.66;;;22.81;69.72
929;BME280;451;47.988;7.842;2022-09-09T12:42:20;98244.84;;;22.96;71.92
929;BME280;451;47.988;7.842;2022-09-09T12:51:26;98256.09;;;22.44;78.03
929;BME280;451;47.988;7.842;2022-09-09T13:00:30;98221.31;;;22.22;76.96
929;BME280;451;47.988;7.842;2022-09-09T13:09:32;98250.13;;;22.10;76.36
929;BME280;451;47.988;7.842;2022-09-09T13:18:36;98241.03;;;21.94;80.88
929;BME280;451;47.988;7.842;2022-09-09T13:27:41;98223.31;;;20.66;78.67
929;BME280;451;47.988;7.842;2022-09-09T13:36:55;98278.94;;;18.89;100.00
929;BME280;451;47.988;7.842;2022-09-09T13:46:02;98214.91;;;19.78;100.00
929;BME280;451;47.988;7.842;2022-09-09T13:55:04;98221.09;;;22.02;95.30
929;BME280;451;47.988;7.842;2022-09-09T14:04:06;98207.97;;;22.27;85.07
929;BME280;451;47.988;7.842;2022-09-09T14:13:08;98206.91;;;20.91;88.08
929;BME280;451;47.988;7.842;2022-09-09T14:22:10;98223.94;;;21.95;84.81
929;BME280;451;47.988;7.842;2022-09-09T14:31:12;98181.13;;;21.18;87.32
929;BME280;451;47.988;7.842;2022-09-09T14:40:14;98211.16;;;22.24;86.58
929;BME280;451;47.988;7.842;2022-09-09T14:49:16;98227.59;;;22.33;85.03
929;BME280;451;47.988;7.842;2022-09-09T14:58:18;98229.59;;;22.21;89.38
929;BME280;451;47.988;7.842;2022-09-09T15:07:20;98203.81;;;22.15;86.93
929;BME280;451;47.988;7.842;2022-09-09T15:16:25;98197.75;;;21.59;81.67
929;BME280;451;47.988;7.842;2022-09-09T15:25:27;98212.69;;;21.16;96.00
929;BME280;451;47.988;7.842;2022-09-09T15:34:29;98180.94;;;20.41;88.54
929;BME280;451;47.988;7.842;2022-09-09T15:43:30;98190.66;;;20.47;88.65
929;BME280;451;47.988;7.842;2022-09-09T15:52:32;98214.88;;;20.58;96.25
929;BME280;451;47.988;7.842;2022-09-09T16:01:34;98245.78;;;20.53;99.38
929;BME280;451;47.988;7.842;2022-09-09T16:10:36;98250.63;;;20.28;100.00
929;BME280;451;47.988;7.842;2022-09-09T16:19:38;98279.53;;;18.91;100.00
929;BME280;451;47.988;7.842;2022-09-09T16:28:40;98290.13;;;17.59;100.00
929;BME280;451;47.988;7.842;2022-09-09T16:37:42;98296.53;;;18.12;100.00
929;BME280;451;47.988;7.842;2022-09-09T16:46:46;98302.81;;;18.00;100.00
929;BME280;451;47.988;7.842;2022-09-09T16:55:50;98288.19;;;17.48;100.00
929;BME280;451;47.988;7.842;2022-09-09T17:04:52;98295.84;;;17.56;100.00
929;BME280;451;47.988;7.842;2022-09-09T17:13:55;98297.13;;;17.28;100.00
929;BME280;451;47.988;7.842;2022-09-09T17:22:57;98270.75;;;16.77;100.00
929;BME280;451;47.988;7.842;2022-09-09T17:31:59;98332.06;;;16.69;100.00
929;BME280;451;47.988;7.842;2022-09-09T17:41:06;98290.59;;;16.30;100.00
929;BME280;451;47.988;7.842;2022-09-09T17:50:09;98328.88;;;16.47;100.00
929;BME280;451;47.988;7.842;2022-09-09T17:59:15;98327.31;;;16.27;100.00
929;BME280;451;47.988;7.842;2022-09-09T18:08:19;98325.31;;;16.16;100.00
929;BME280;451;47.988;7.842;2022-09-09T18:17:21;98326.56;;;16.00;100.00
929;BME280;451;47.988;7.842;2022-09-09T18:26:24;98335.91;;;16.22;100.00
929;BME280;451;47.988;7.842;2022-09-09T18:35:26;98306.19;;;15.94;100.00
929;BME280;451;47.988;7.842;2022-09-09T18:44:31;98349.81;;;16.11;100.00
929;BME280;451;47.988;7.842;2022-09-09T18:53:37;98357.31;;;16.34;100.00
929;BME280;451;47.988;7.842;2022-09-09T19:02:39;98351.78;;;16.42;100.00
929;BME280;451;47.988;7.842;2022-09-09T19:11:41;98365.41;;;16.45;100.00
929;BME280;451;47.988;7.842;2022-09-09T19:20:42;98373.97;;;16.54;100.00
929;BME280;451;47.988;7.842;2022-09-09T19:29:45;98380.59;;;16.83;100.00
929;BME280;451;47.988;7.842;2022-09-09T19:38:49;98397.94;;;16.92;100.00
929;BME280;451;47.988;7.842;2022-09-09T19:47:50;98382.50;;;17.39;100.00
929;BME280;451;47.988;7.842;2022-09-09T19:56:53;98364.34;;;17.04;100.00
929;BME280;451;47.988;7.842;2022-09-09T20:05:54;98403.97;;;17.37;100.00
929;BME280;451;47.988;7.842;2022-09-09T20:14:56;98365.00;;;17.24;100.00
929;BME280;451;47.988;7.842;2022-09-09T20:24:03;98364.84;;;17.19;100.00
929;BME280;451;47.988;7.842;2022-09-09T20:33:06;98396.03;;;17.62;100.00
929;BME280;451;47.988;7.842;2022-09-09T20:42:08;98392.09;;;17.40;100.00
929;BME280;451;47.988;7.842;2022-09-09T20:51:10;98390.91;;;17.36;100.00
929;BME280;451;47.988;7.842;2022-09-09T21:00:13;98385.97;;;17.39;100.00
929;BME280;451;47.988;7.842;2022-09-09T21:09:15;98416.63;;;17.42;100.00
929;BME280;451;47.988;7.842;2022-09-09T21:18:18;98422.03;;;17.28;100.00
929;BME280;451;47.988;7.842;2022-09-09T21:27:20;98409.94;;;17.32;100.00
929;BME280;451;47.988;7.842;2022-09-09T21:36:24;98428.53;;;17.32;100.00
929;BME280;451;47.988;7.842;2022-09-09T21:45:28;98426.13;;;17.24;100.00
929;BME280;451;47.988;7.842;2022-09-09T21:54:30;98440.06;;;17.20;100.00
929;BME280;451;47.988;7.842;2022-09-09T22:03:35;98426.91;;;17.31;100.00
929;BME280;451;47.988;7.842;2022-09-09T22:12:38;98418.75;;;17.26;100.00
929;BME280;451;47.988;7.842;2022-09-09T22:21:40;98424.38;;;17.43;100.00
929;BME280;451;47.988;7.842;2022-09-09T22:30:41;98443.28;;;17.28;100.00
929;BME280;451;47.988;7.842;2022-09-09T22:39:43;98430.97;;;17.34;100.00
929;BME280;451;47.988;7.842;2022-09-09T22:48:45;98423.84;;;17.34;100.00
929;BME280;451;47.988;7.842;2022-09-09T22:57:47;98410.75;;;17.33;100.00
929;BME280;451;47.988;7.842;2022-09-09T23:06:49;98400.03;;;17.15;100.00
929;BME280;451;47.988;7.842;2022-09-09T23:15:50;98407.97;;;17.53;100.00
929;BME280;451;47.988;7.842;2022-09-09T23:24:52;98406.19;;;17.09;100.00
929;BME280;451;47.988;7.842;2022-09-09T23:33:54;98416.72;;;17.28;100.00
929;BME280;451;47.988;7.842;2022-09-09T23:42:56;98416.72;;;17.28;100.00
929;BME280;451;47.988;7.842;2022-09-09T23:51:58;98430.13;;;17.40;100.00
